sensor_id;sensor_type;location;lat;lon;timestamp;pressure;altitude;pressure_sealevel;temperature;humidity
65190;BME280;51777;53.570;9.984;2023-01-31T00:00:45;101410.25;;;4.39;100.00
65190;BME280;51777;53.570;9.984;2023-01-31T00:03:10;101405.31;;;4.36;100.00
65190;BME280;51777;53.570;9.984;2023-01-31T00:05:36;101410.53;;;4.35;100.00
65190;BME280;51777;53.570;9.984;2023-01-31T00:08:01;101405.47;;;4.33;100.00
65190;BME280;51777;53.570;9.984;2023-01-31T00:10:26;101405.94;;;4.26;100.00
65190;BME280;51777;53.570;9.984;2023-01-31T00:12:52;101412.88;;;4.24;100.00
65190;BME280;51777;53.570;9.984;2023-01-31T00:15:17;101408.00;;;4.19;100.00
65190;BME280;51777;53.570;9.984;2023-01-31T00:17:43;101407.44;;;4.14;100.00
65190;BME280;51777;53.570;9.984;2023-01-31T00:20:10;101407.53;;;4.12;100.00
65190;BME280;51777;53.570;9.984;2023-01-31T00:22:36;101406.03;;;4.08;100.00
65190;BME280;51777;53.570;9.984;2023-01-31T00:25:01;101410.44;;;4.06;100.00
65190;BME280;51777;53.570;9.984;2023-01-31T00:27:27;101412.16;;;4.06;100.00
65190;BME280;51777;53.570;9.984;2023-01-31T00:29:55;101414.81;;;4.04;100.00
65190;BME280;51777;53.570;9.984;2023-01-31T00:32:21;101428.34;;;4.06;100.00
65190;BME280;51777;53.570;9.984;2023-01-31T00:34:46;101419.75;;;4.07;100.00
65190;BME280;51777;53.570;9.984;2023-01-31T00:37:12;101421.97;;;4.13;100.00
65190;BME280;51777;53.570;9.984;2023-01-31T00:39:37;101418.22;;;4.19;100.00
65190;BME280;51777;53.570;9.984;2023-01-31T00:42:03;101423.34;;;4.19;100.00
65190;BME280;51777;53.570;9.984;2023-01-31T00:44:28;101424.75;;;4.25;100.00
65190;BME280;51777;53.570;9.984;2023-01-31T00:46:53;101417.81;;;4.27;100.00
65190;BME280;51777;53.570;9.984;2023-01-31T00:49:19;101420.47;;;4.25;100.00
65190;BME280;51777;53.570;9.984;2023-01-31T00:51:44;101422.00;;;4.28;100.00
65190;BME280;51777;53.570;9.984;2023-01-31T00:54:10;101428.59;;;4.32;100.00
65190;BME280;51777;53.570;9.984;2023-01-31T00:56:35;101422.66;;;4.31;100.00
65190;BME280;51777;53.570;9.984;2023-01-31T00:59:02;101447.09;;;4.37;100.00
65190;BME280;51777;53.570;9.984;2023-01-31T01:01:33;101446.59;;;4.30;100.00
65190;BME280;51777;53.570;9.984;2023-01-31T01:04:00;101458.03;;;4.25;100.00
65190;BME280;51777;53.570;9.984;2023-01-31T01:06:26;101449.88;;;4.18;100.00
65190;BME280;51777;53.570;9.984;2023-01-31T01:08:53;101441.22;;;4.05;100.00
65190;BME280;51777;53.570;9.984;2023-01-31T01:11:22;101434.00;;;3.97;100.00
65190;BME280;51777;53.570;9.984;2023-01-31T01:13:48;101437.81;;;3.90;100.00
65190;BME280;51777;53.570;9.984;2023-01-31T01:16:23;101430.91;;;3.76;100.00
65190;BME280;51777;53.570;9.984;2023-01-31T01:18:48;101434.53;;;3.72;100.00
65190;BME280;51777;53.570;9.984;2023-01-31T01:21:22;101444.09;;;3.69;100.00
65190;BME280;51777;53.570;9.984;2023-01-31T01:23:48;101445.91;;;3.67;100.00
65190;BME280;51777;53.570;9.984;2023-01-31T01:26:34;101436.19;;;3.58;100.00
65190;BME280;51777;53.570;9.984;2023-01-31T01:29:00;101446.25;;;3.61;100.00
65190;BME280;51777;53.570;9.984;2023-01-31T01:31:27;101442.53;;;3.66;100.00
65190;BME280;51777;53.570;9.984;2023-01-31T01:34:01;101433.78;;;3.70;100.00
65190;BME280;51777;53.570;9.984;2023-01-31T01:36:27;101441.31;;;3.73;100.00
65190;BME280;51777;53.570;9.984;2023-01-31T01:38:53;101445.59;;;3.73;100.00
65190;BME280;51777;53.570;9.984;2023-01-31T01:41:20;101444.78;;;3.72;100.00
65190;BME280;51777;53.570;9.984;2023-01-31T01:43:58;101431.31;;;3.69;100.00
65190;BME280;51777;53.570;9.984;2023-01-31T01:46:37;101434.22;;;3.63;100.00
65190;BME280;51777;53.570;9.984;2023-01-31T01:51:49;101433.03;;;3.68;100.00
65190;BME280;51777;53.570;9.984;2023-01-31T01:54:21;101421.81;;;3.71;100.00
65190;BME280;51777;53.570;9.984;2023-01-31T01:56:50;101431.31;;;3.69;100.00
65190;BME280;51777;53.570;9.984;2023-01-31T01:59:24;101432.31;;;3.66;100.00
65190;BME280;51777;53.570;9.984;2023-01-31T02:01:51;101436.84;;;3.61;100.00
65190;BME280;51777;53.570;9.984;2023-01-31T02:04:22;101449.63;;;3.61;100.00
65190;BME280;51777;53.570;9.984;2023-01-31T02:06:49;101451.19;;;3.64;100.00
65190;BME280;51777;53.570;9.984;2023-01-31T02:09:21;101449.47;;;3.64;100.00
65190;BME280;51777;53.570;9.984;2023-01-31T02:11:50;101446.25;;;3.61;100.00
65190;BME280;51777;53.570;9.984;2023-01-31T02:14:16;101462.06;;;3.67;100.00
65190;BME280;51777;53.570;9.984;2023-01-31T02:16:42;101461.09;;;3.70;100.00
65190;BME280;51777;53.570;9.984;2023-01-31T02:19:20;101466.78;;;3.75;100.00
65190;BME280;51777;53.570;9.984;2023-01-31T02:22:22;101465.53;;;3.82;100.00
65190;BME280;51777;53.570;9.984;2023-01-31T02:25:35;101476.91;;;3.92;100.00
65190;BME280;51777;53.570;9.984;2023-01-31T02:30:42;101470.88;;;3.93;100.00
65190;BME280;51777;53.570;9.984;2023-01-31T02:33:36;101473.25;;;3.96;100.00
65190;BME280;51777;53.570;9.984;2023-01-31T02:36:42;101474.25;;;3.94;100.00
65190;BME280;51777;53.570;9.984;2023-01-31T02:39:31;101469.81;;;3.97;100.00
65190;BME280;51777;53.570;9.984;2023-01-31T02:42:03;101462.97;;;3.98;100.00
65190;BME280;51777;53.570;9.984;2023-01-31T02:44:39;101461.28;;;3.97;100.00
65190;BME280;51777;53.570;9.984;2023-01-31T02:52:52;101467.63;;;4.05;100.00
65190;BME280;51777;53.570;9.984;2023-01-31T02:55:32;101471.63;;;3.95;100.00
65190;BME280;51777;53.570;9.984;2023-01-31T02:58:20;101486.72;;;4.00;100.00
65190;BME280;51777;53.570;9.984;2023-01-31T03:00:46;101491.13;;;3.98;100.00
65190;BME280;51777;53.570;9.984;2023-01-31T03:03:39;101479.97;;;3.99;100.00
65190;BME280;51777;53.570;9.984;2023-01-31T03:08:50;101496.13;;;3.99;100.00
65190;BME280;51777;53.570;9.984;2023-01-31T03:11:18;101486.06;;;3.96;100.00
65190;BME280;51777;53.570;9.984;2023-01-31T03:13:55;101472.28;;;3.99;100.00
65190;BME280;51777;53.570;9.984;2023-01-31T03:16:35;101472.06;;;3.88;100.00
65190;BME280;51777;53.570;9.984;2023-01-31T03:19:45;101470.25;;;3.74;100.00
65190;BME280;51777;53.570;9.984;2023-01-31T03:22:18;101459.25;;;3.72;100.00
65190;BME280;51777;53.570;9.984;2023-01-31T03:24:49;101458.44;;;3.71;100.00
65190;BME280;51777;53.570;9.984;2023-01-31T03:27:16;101447.56;;;3.68;100.00
65190;BME280;51777;53.570;9.984;2023-01-31T03:29:43;101449.22;;;3.69;100.00
65190;BME280;51777;53.570;9.984;2023-01-31T03:32:39;101436.78;;;3.63;100.00
65190;BME280;51777;53.570;9.984;2023-01-31T03:35:07;101450.69;;;3.57;100.00
65190;BME280;51777;53.570;9.984;2023-01-31T03:37:38;101442.13;;;3.58;100.00
65190;BME280;51777;53.570;9.984;2023-01-31T03:40:12;101444.94;;;3.53;100.00
65190;BME280;51777;53.570;9.984;2023-01-31T03:43:02;101442.47;;;3.52;100.00
65190;BME280;51777;53.570;9.984;2023-01-31T03:45:50;101451.22;;;3.48;100.00
65190;BME280;51777;53.570;9.984;2023-01-31T03:48:19;101446.91;;;3.48;100.00
65190;BME280;51777;53.570;9.984;2023-01-31T03:50:51;101452.78;;;3.50;100.00
65190;BME280;51777;53.570;9.984;2023-01-31T03:53:24;101448.41;;;3.52;100.00
65190;BME280;51777;53.570;9.984;2023-01-31T03:55:54;101443.47;;;3.49;100.00
65190;BME280;51777;53.570;9.984;2023-01-31T03:58:25;101443.19;;;3.54;100.00
65190;BME280;51777;53.570;9.984;2023-01-31T04:00:53;101439.66;;;3.57;100.00
65190;BME280;51777;53.570;9.984;2023-01-31T04:03:36;101440.38;;;3.59;100.00
65190;BME280;51777;53.570;9.984;2023-01-31T04:06:04;101442.13;;;3.58;100.00
65190;BME280;51777;53.570;9.984;2023-01-31T04:08:31;101449.69;;;3.60;100.00
65190;BME280;51777;53.570;9.984;2023-01-31T04:10:58;101453.16;;;3.59;100.00
65190;BME280;51777;53.570;9.984;2023-01-31T04:13:23;101446.31;;;3.59;100.00
65190;BME280;51777;53.570;9.984;2023-01-31T04:15:49;101451.59;;;3.56;100.00
65190;BME280;51777;53.570;9.984;2023-01-31T04:18:14;101446.50;;;3.56;100.00
65190;BME280;51777;53.570;9.984;2023-01-31T04:20:40;101447.72;;;3.65;100.00
65190;BME280;51777;53.570;9.984;2023-01-31T04:23:05;101439.72;;;3.71;100.00
65190;BME280;51777;53.570;9.984;2023-01-31T04:25:30;101438.59;;;3.61;100.00
65190;BME280;51777;53.570;9.984;2023-01-31T04:27:56;101424.81;;;3.63;100.00
65190;BME280;51777;53.570;9.984;2023-01-31T04:30:21;101429.34;;;3.58;100.00
65190;BME280;51777;53.570;9.984;2023-01-31T04:32:47;101413.84;;;3.61;100.00
65190;BME280;51777;53.570;9.984;2023-01-31T04:35:12;101414.66;;;3.62;100.00
65190;BME280;51777;53.570;9.984;2023-01-31T04:37:37;101423.97;;;3.63;100.00
65190;BME280;51777;53.570;9.984;2023-01-31T04:40:03;101423.81;;;3.66;100.00
65190;BME280;51777;53.570;9.984;2023-01-31T04:42:30;101421.06;;;3.69;100.00
65190;BME280;51777;53.570;9.984;2023-01-31T04:44:55;101419.69;;;3.63;100.00
65190;BME280;51777;53.570;9.984;2023-01-31T04:47:20;101425.28;;;3.70;100.00
65190;BME280;51777;53.570;9.984;2023-01-31T04:49:46;101426.09;;;3.70;100.00
65190;BME280;51777;53.570;9.984;2023-01-31T04:52:11;101428.25;;;3.78;100.00
65190;BME280;51777;53.570;9.984;2023-01-31T04:54:37;101432.53;;;3.77;100.00
65190;BME280;51777;53.570;9.984;2023-01-31T04:57:02;101434.28;;;3.77;100.00
65190;BME280;51777;53.570;9.984;2023-01-31T04:59:27;101435.91;;;3.78;100.00
65190;BME280;51777;53.570;9.984;2023-01-31T05:01:53;101436.66;;;3.80;100.00
65190;BME280;51777;53.570;9.984;2023-01-31T05:04:18;101435.84;;;3.79;100.00
65190;BME280;51777;53.570;9.984;2023-01-31T05:06:46;101440.22;;;3.77;100.00
65190;BME280;51777;53.570;9.984;2023-01-31T05:09:11;101441.59;;;3.83;100.00
65190;BME280;51777;53.570;9.984;2023-01-31T05:11:37;101438.88;;;3.86;100.00
65190;BME280;51777;53.570;9.984;2023-01-31T05:14:02;101428.75;;;3.85;100.00
65190;BME280;51777;53.570;9.984;2023-01-31T05:16:28;101432.19;;;3.83;100.00
65190;BME280;51777;53.570;9.984;2023-01-31T05:18:53;101418.25;;;3.89;100.00
65190;BME280;51777;53.570;9.984;2023-01-31T05:21:19;101416.44;;;3.91;100.00
65190;BME280;51777;53.570;9.984;2023-01-31T05:23:44;101419.72;;;3.93;100.00
65190;BME280;51777;53.570;9.984;2023-01-31T05:26:10;101422.53;;;3.89;100.00
65190;BME280;51777;53.570;9.984;2023-01-31T05:28:35;101420.16;;;3.86;100.00
65190;BME280;51777;53.570;9.984;2023-01-31T05:31:06;101409.47;;;3.93;100.00
65190;BME280;51777;53.570;9.984;2023-01-31T05:33:32;101412.41;;;3.87;100.00
65190;BME280;51777;53.570;9.984;2023-01-31T05:35:58;101399.16;;;3.95;100.00
65190;BME280;51777;53.570;9.984;2023-01-31T05:38:24;101412.88;;;3.94;100.00
65190;BME280;51777;53.570;9.984;2023-01-31T05:40:50;101404.13;;;3.98;100.00
65190;BME280;51777;53.570;9.984;2023-01-31T05:43:16;101405.28;;;3.92;100.00
65190;BME280;51777;53.570;9.984;2023-01-31T05:45:41;101399.84;;;3.98;100.00
65190;BME280;51777;53.570;9.984;2023-01-31T05:48:07;101386.03;;;4.01;100.00
65190;BME280;51777;53.570;9.984;2023-01-31T05:50:32;101387.19;;;3.95;100.00
65190;BME280;51777;53.570;9.984;2023-01-31T05:52:59;101383.56;;;3.99;100.00
65190;BME280;51777;53.570;9.984;2023-01-31T05:55:25;101391.16;;;4.01;100.00
65190;BME280;51777;53.570;9.984;2023-01-31T05:57:52;101382.66;;;4.00;100.00
65190;BME280;51777;53.570;9.984;2023-01-31T06:00:18;101385.31;;;3.99;100.00
65190;BME280;51777;53.570;9.984;2023-01-31T06:02:43;101380.91;;;4.01;100.00
65190;BME280;51777;53.570;9.984;2023-01-31T06:05:09;101388.41;;;4.04;100.00
65190;BME280;51777;53.570;9.984;2023-01-31T06:07:35;101384.28;;;4.01;100.00
65190;BME280;51777;53.570;9.984;2023-01-31T06:10:01;101385.84;;;4.04;100.00
65190;BME280;51777;53.570;9.984;2023-01-31T06:12:27;101393.34;;;4.07;100.00
65190;BME280;51777;53.570;9.984;2023-01-31T06:14:53;101382.13;;;4.09;100.00
65190;BME280;51777;53.570;9.984;2023-01-31T06:17:18;101373.78;;;4.06;100.00
65190;BME280;51777;53.570;9.984;2023-01-31T06:19:44;101375.44;;;4.07;100.00
65190;BME280;51777;53.570;9.984;2023-01-31T06:22:09;101376.16;;;4.09;100.00
65190;BME280;51777;53.570;9.984;2023-01-31T06:24:35;101362.41;;;4.11;100.00
65190;BME280;51777;53.570;9.984;2023-01-31T06:27:00;101365.09;;;4.08;100.00
65190;BME280;51777;53.570;9.984;2023-01-31T06:29:26;101354.81;;;4.10;100.00
65190;BME280;51777;53.570;9.984;2023-01-31T06:31:51;101364.13;;;4.11;100.00
65190;BME280;51777;53.570;9.984;2023-01-31T06:34:18;101359.09;;;4.09;100.00
65190;BME280;51777;53.570;9.984;2023-01-31T06:36:43;101355.63;;;4.10;100.00
65190;BME280;51777;53.570;9.984;2023-01-31T06:39:10;101360.75;;;4.10;100.00
65190;BME280;51777;53.570;9.984;2023-01-31T06:41:36;101356.69;;;4.06;100.00
65190;BME280;51777;53.570;9.984;2023-01-31T06:44:02;101358.25;;;4.09;100.00
65190;BME280;51777;53.570;9.984;2023-01-31T06:46:27;101347.28;;;4.07;100.00
65190;BME280;51777;53.570;9.984;2023-01-31T06:48:53;101348.19;;;4.06;100.00
65190;BME280;51777;53.570;9.984;2023-01-31T06:51:18;101333.50;;;4.09;100.00
65190;BME280;51777;53.570;9.984;2023-01-31T06:53:43;101331.66;;;3.97;100.00
65190;BME280;51777;53.570;9.984;2023-01-31T06:56:09;101319.97;;;4.07;100.00
65190;BME280;51777;53.570;9.984;2023-01-31T06:58:34;101323.72;;;4.02;100.00
65190;BME280;51777;53.570;9.984;2023-01-31T07:01:08;101319.59;;;3.99;100.00
65190;BME280;51777;53.570;9.984;2023-01-31T07:03:34;101307.53;;;4.01;100.00
65190;BME280;51777;53.570;9.984;2023-01-31T07:05:59;101311.84;;;4.01;100.00
65190;BME280;51777;53.570;9.984;2023-01-31T07:08:25;101307.53;;;4.01;100.00
65190;BME280;51777;53.570;9.984;2023-01-31T07:10:50;101298.56;;;4.08;100.00
65190;BME280;51777;53.570;9.984;2023-01-31T07:13:16;101292.28;;;4.14;100.00
65190;BME280;51777;53.570;9.984;2023-01-31T07:15:44;101293.31;;;4.11;100.00
65190;BME280;51777;53.570;9.984;2023-01-31T07:18:09;101291.66;;;4.10;100.00
65190;BME280;51777;53.570;9.984;2023-01-31T07:20:38;101288.34;;;4.08;100.00
65190;BME280;51777;53.570;9.984;2023-01-31T07:23:03;101280.41;;;4.13;100.00
65190;BME280;51777;53.570;9.984;2023-01-31T07:25:29;101275.94;;;4.17;100.00
65190;BME280;51777;53.570;9.984;2023-01-31T07:27:56;101266.69;;;4.14;100.00
65190;BME280;51777;53.570;9.984;2023-01-31T07:30:21;101260.75;;;4.13;100.00
65190;BME280;51777;53.570;9.984;2023-01-31T07:32:47;101255.09;;;4.23;100.00
65190;BME280;51777;53.570;9.984;2023-01-31T07:35:13;101250.00;;;4.23;100.00
65190;BME280;51777;53.570;9.984;2023-01-31T07:37:38;101240.56;;;4.23;100.00
65190;BME280;51777;53.570;9.984;2023-01-31T07:40:05;101242.84;;;4.28;100.00
65190;BME280;51777;53.570;9.984;2023-01-31T07:42:31;101230.75;;;4.30;100.00
65190;BME280;51777;53.570;9.984;2023-01-31T07:44:56;101228.66;;;4.36;100.00
65190;BME280;51777;53.570;9.984;2023-01-31T07:47:22;101234.13;;;4.45;100.00
65190;BME280;51777;53.570;9.984;2023-01-31T07:49:47;101228.38;;;4.41;100.00
65190;BME280;51777;53.570;9.984;2023-01-31T07:52:15;101222.34;;;4.42;100.00
65190;BME280;51777;53.570;9.984;2023-01-31T07:54:40;101223.63;;;4.49;100.00
65190;BME280;51777;53.570;9.984;2023-01-31T07:57:05;101222.91;;;4.47;100.00
65190;BME280;51777;53.570;9.984;2023-01-31T07:59:31;101218.84;;;4.43;100.00
65190;BME280;51777;53.570;9.984;2023-01-31T08:01:56;101209.09;;;4.50;100.00
65190;BME280;51777;53.570;9.984;2023-01-31T08:04:40;101207.59;;;4.60;100.00
65190;BME280;51777;53.570;9.984;2023-01-31T08:07:06;101211.69;;;4.62;100.00
65190;BME280;51777;53.570;9.984;2023-01-31T08:09:32;101209.13;;;4.62;100.00
65190;BME280;51777;53.570;9.984;2023-01-31T08:11:57;101211.31;;;4.68;100.00
65190;BME280;51777;53.570;9.984;2023-01-31T08:14:23;101200.25;;;4.68;100.00
65190;BME280;51777;53.570;9.984;2023-01-31T08:16:59;101192.44;;;4.69;100.00
65190;BME280;51777;53.570;9.984;2023-01-31T08:19:24;101195.94;;;4.68;100.00
65190;BME280;51777;53.570;9.984;2023-01-31T08:21:50;101196.38;;;4.75;100.00
65190;BME280;51777;53.570;9.984;2023-01-31T08:24:16;101187.16;;;4.72;100.00
65190;BME280;51777;53.570;9.984;2023-01-31T08:26:45;101181.84;;;4.76;100.00
65190;BME280;51777;53.570;9.984;2023-01-31T08:29:11;101183.47;;;4.77;100.00
65190;BME280;51777;53.570;9.984;2023-01-31T08:31:39;101182.84;;;4.73;100.00
65190;BME280;51777;53.570;9.984;2023-01-31T08:34:05;101191.50;;;4.85;100.00
65190;BME280;51777;53.570;9.984;2023-01-31T08:36:31;101175.22;;;4.86;100.00
65190;BME280;51777;53.570;9.984;2023-01-31T08:39:17;101180.03;;;4.90;100.00
65190;BME280;51777;53.570;9.984;2023-01-31T08:41:43;101184.25;;;4.91;100.00
65190;BME280;51777;53.570;9.984;2023-01-31T08:44:11;101173.88;;;4.93;100.00
65190;BME280;51777;53.570;9.984;2023-01-31T08:46:36;101169.81;;;5.03;100.00
65190;BME280;51777;53.570;9.984;2023-01-31T08:49:04;101173.31;;;5.02;100.00
65190;BME280;51777;53.570;9.984;2023-01-31T08:51:30;101154.34;;;5.05;100.00
65190;BME280;51777;53.570;9.984;2023-01-31T08:53:57;101146.88;;;5.14;100.00
65190;BME280;51777;53.570;9.984;2023-01-31T08:56:22;101143.19;;;5.18;100.00
65190;BME280;51777;53.570;9.984;2023-01-31T08:58:51;101147.25;;;5.08;100.00
65190;BME280;51777;53.570;9.984;2023-01-31T09:01:19;101143.06;;;5.07;100.00
65190;BME280;51777;53.570;9.984;2023-01-31T09:03:46;101131.38;;;5.03;100.00
65190;BME280;51777;53.570;9.984;2023-01-31T09:06:14;101133.63;;;5.08;100.00
65190;BME280;51777;53.570;9.984;2023-01-31T09:08:40;101131.50;;;5.14;100.00
65190;BME280;51777;53.570;9.984;2023-01-31T09:11:06;101117.44;;;5.07;100.00
65190;BME280;51777;53.570;9.984;2023-01-31T09:13:33;101123.00;;;5.14;100.00
65190;BME280;51777;53.570;9.984;2023-01-31T09:16:04;101104.53;;;5.09;100.00
65190;BME280;51777;53.570;9.984;2023-01-31T09:18:38;101101.88;;;5.10;100.00
65190;BME280;51777;53.570;9.984;2023-01-31T09:21:05;101090.88;;;5.08;100.00
65190;BME280;51777;53.570;9.984;2023-01-31T09:23:31;101087.31;;;5.11;100.00
65190;BME280;51777;53.570;9.984;2023-01-31T09:25:57;101087.22;;;5.12;100.00
65190;BME280;51777;53.570;9.984;2023-01-31T09:28:23;101088.03;;;5.13;100.00
65190;BME280;51777;53.570;9.984;2023-01-31T09:30:50;101086.50;;;5.10;100.00
65190;BME280;51777;53.570;9.984;2023-01-31T09:33:18;101080.25;;;5.14;100.00
65190;BME280;51777;53.570;9.984;2023-01-31T09:35:56;101070.31;;;5.22;100.00
65190;BME280;51777;53.570;9.984;2023-01-31T09:38:22;101075.22;;;5.13;100.00
65190;BME280;51777;53.570;9.984;2023-01-31T09:40:48;101071.94;;;5.11;100.00
65190;BME280;51777;53.570;9.984;2023-01-31T09:43:14;101058.81;;;5.03;100.00
65190;BME280;51777;53.570;9.984;2023-01-31T09:45:41;101053.91;;;4.99;100.00
65190;BME280;51777;53.570;9.984;2023-01-31T09:48:14;101054.16;;;4.82;100.00
65190;BME280;51777;53.570;9.984;2023-01-31T09:50:47;101055.59;;;4.74;100.00
65190;BME280;51777;53.570;9.984;2023-01-31T09:53:19;101051.72;;;4.81;100.00
65190;BME280;51777;53.570;9.984;2023-01-31T10:06:57;101035.13;;;4.74;100.00
65190;BME280;51777;53.570;9.984;2023-01-31T10:09:34;101020.03;;;4.69;100.00
65190;BME280;51777;53.570;9.984;2023-01-31T10:12:11;101014.22;;;4.80;100.00
65190;BME280;51777;53.570;9.984;2023-01-31T10:14:44;101013.19;;;4.82;100.00
65190;BME280;51777;53.570;9.984;2023-01-31T10:17:25;101005.41;;;4.84;100.00
65190;BME280;51777;53.570;9.984;2023-01-31T10:23:06;101008.59;;;4.87;100.00
65190;BME280;51777;53.570;9.984;2023-01-31T10:25:47;101004.06;;;4.91;100.00
65190;BME280;51777;53.570;9.984;2023-01-31T10:31:37;100996.06;;;4.95;100.00
65190;BME280;51777;53.570;9.984;2023-01-31T10:34:11;100992.69;;;4.95;100.00
65190;BME280;51777;53.570;9.984;2023-01-31T10:37:04;100972.72;;;5.00;100.00
65190;BME280;51777;53.570;9.984;2023-01-31T10:39:53;100970.66;;;5.05;100.00
65190;BME280;51777;53.570;9.984;2023-01-31T10:42:37;100967.38;;;5.03;100.00
65190;BME280;51777;53.570;9.984;2023-01-31T10:45:20;100963.19;;;5.02;100.00
65190;BME280;51777;53.570;9.984;2023-01-31T10:47:53;100957.63;;;5.08;100.00
65190;BME280;51777;53.570;9.984;2023-01-31T10:50:41;100940.53;;;5.09;100.00
65190;BME280;51777;53.570;9.984;2023-01-31T10:55:43;100932.00;;;5.21;100.00
65190;BME280;51777;53.570;9.984;2023-01-31T10:58:15;100934.63;;;5.19;100.00
65190;BME280;51777;53.570;9.984;2023-01-31T11:00:41;100933.00;;;5.18;100.00
65190;BME280;51777;53.570;9.984;2023-01-31T11:03:11;100920.88;;;5.20;100.00
65190;BME280;51777;53.570;9.984;2023-01-31T11:05:58;100914.75;;;5.23;100.00
65190;BME280;51777;53.570;9.984;2023-01-31T11:08:53;100914.31;;;5.29;100.00
65190;BME280;51777;53.570;9.984;2023-01-31T11:11:19;100903.56;;;5.24;100.00
65190;BME280;51777;53.570;9.984;2023-01-31T11:14:01;100920.03;;;5.32;100.00
65190;BME280;51777;53.570;9.984;2023-01-31T11:16:29;100936.88;;;5.37;100.00
65190;BME280;51777;53.570;9.984;2023-01-31T11:18:56;100935.22;;;5.36;100.00
65190;BME280;51777;53.570;9.984;2023-01-31T11:21:26;100943.19;;;5.44;100.00
65190;BME280;51777;53.570;9.984;2023-01-31T11:24:03;100932.50;;;5.50;100.00
65190;BME280;51777;53.570;9.984;2023-01-31T11:26:37;100917.13;;;5.50;100.00
65190;BME280;51777;53.570;9.984;2023-01-31T11:29:16;100898.84;;;5.54;100.00
65190;BME280;51777;53.570;9.984;2023-01-31T11:31:43;100901.81;;;5.61;100.00
65190;BME280;51777;53.570;9.984;2023-01-31T11:34:27;100908.22;;;5.67;100.00
65190;BME280;51777;53.570;9.984;2023-01-31T11:37:03;100910.78;;;5.67;100.00
65190;BME280;51777;53.570;9.984;2023-01-31T11:39:31;100899.16;;;5.74;100.00
65190;BME280;51777;53.570;9.984;2023-01-31T11:42:13;100898.06;;;5.65;100.00
65190;BME280;51777;53.570;9.984;2023-01-31T11:44:57;100880.56;;;5.59;100.00
65190;BME280;51777;53.570;9.984;2023-01-31T11:47:42;100882.56;;;5.67;100.00
65190;BME280;51777;53.570;9.984;2023-01-31T11:50:32;100888.09;;;5.73;100.00
65190;BME280;51777;53.570;9.984;2023-01-31T11:56:18;100878.16;;;5.69;100.00
65190;BME280;51777;53.570;9.984;2023-01-31T11:58:55;100880.50;;;5.72;100.00
65190;BME280;51777;53.570;9.984;2023-01-31T12:01:25;100868.00;;;5.67;100.00
65190;BME280;51777;53.570;9.984;2023-01-31T12:03:55;100870.13;;;5.73;100.00
65190;BME280;51777;53.570;9.984;2023-01-31T12:06:39;100869.22;;;5.74;100.00
65190;BME280;51777;53.570;9.984;2023-01-31T12:09:20;100859.19;;;5.71;100.00
65190;BME280;51777;53.570;9.984;2023-01-31T12:11:52;100861.88;;;5.81;100.00
65190;BME280;51777;53.570;9.984;2023-01-31T12:14:22;100853.59;;;5.77;100.00
65190;BME280;51777;53.570;9.984;2023-01-31T12:16:53;100850.09;;;5.78;100.00
65190;BME280;51777;53.570;9.984;2023-01-31T12:22:41;100852.22;;;5.84;100.00
65190;BME280;51777;53.570;9.984;2023-01-31T12:25:39;100848.41;;;5.90;100.00
65190;BME280;51777;53.570;9.984;2023-01-31T12:34:11;100835.03;;;5.98;100.00
65190;BME280;51777;53.570;9.984;2023-01-31T12:36:52;100842.84;;;5.96;100.00
65190;BME280;51777;53.570;9.984;2023-01-31T12:42:53;100832.22;;;6.01;100.00
65190;BME280;51777;53.570;9.984;2023-01-31T12:50:49;100811.22;;;6.07;100.00
65190;BME280;51777;53.570;9.984;2023-01-31T12:59:42;100809.03;;;6.13;100.00
65190;BME280;51777;53.570;9.984;2023-01-31T13:02:21;100811.81;;;6.10;100.00
65190;BME280;51777;53.570;9.984;2023-01-31T13:04:59;100798.41;;;6.18;100.00
65190;BME280;51777;53.570;9.984;2023-01-31T13:07:40;100791.38;;;6.20;100.00
65190;BME280;51777;53.570;9.984;2023-01-31T13:10:39;100778.47;;;6.33;100.00
65190;BME280;51777;53.570;9.984;2023-01-31T13:13:15;100774.34;;;6.30;100.00
65190;BME280;51777;53.570;9.984;2023-01-31T13:15:43;100773.41;;;6.42;100.00
65190;BME280;51777;53.570;9.984;2023-01-31T13:18:12;100783.38;;;6.36;100.00
65190;BME280;51777;53.570;9.984;2023-01-31T13:23:22;100786.38;;;6.41;100.00
65190;BME280;51777;53.570;9.984;2023-01-31T13:25:56;100789.06;;;6.39;100.00
65190;BME280;51777;53.570;9.984;2023-01-31T13:32:19;100779.72;;;6.50;100.00
65190;BME280;51777;53.570;9.984;2023-01-31T13:37:38;100782.63;;;6.67;100.00
65190;BME280;51777;53.570;9.984;2023-01-31T13:40:20;100781.69;;;6.68;100.00
65190;BME280;51777;53.570;9.984;2023-01-31T13:42:48;100781.09;;;6.65;100.00
65190;BME280;51777;53.570;9.984;2023-01-31T13:45:28;100772.56;;;6.75;100.00
65190;BME280;51777;53.570;9.984;2023-01-31T13:50:50;100764.03;;;6.86;100.00
65190;BME280;51777;53.570;9.984;2023-01-31T13:53:27;100765.41;;;6.90;100.00
65190;BME280;51777;53.570;9.984;2023-01-31T13:55:56;100746.22;;;6.94;100.00
65190;BME280;51777;53.570;9.984;2023-01-31T13:58:29;100751.97;;;6.98;100.00
65190;BME280;51777;53.570;9.984;2023-01-31T14:01:14;100746.44;;;7.02;100.00
65190;BME280;51777;53.570;9.984;2023-01-31T14:09:25;100746.22;;;6.94;100.00
65190;BME280;51777;53.570;9.984;2023-01-31T14:11:52;100740.97;;;6.96;100.00
65190;BME280;51777;53.570;9.984;2023-01-31T14:17:12;100739.44;;;6.93;100.00
65190;BME280;51777;53.570;9.984;2023-01-31T14:27:35;100742.25;;;7.01;100.00
65190;BME280;51777;53.570;9.984;2023-01-31T14:32:57;100742.16;;;6.92;100.00
65190;BME280;51777;53.570;9.984;2023-01-31T14:57:45;100723.34;;;6.91;100.00
65190;BME280;51777;53.570;9.984;2023-01-31T15:00:17;100735.38;;;6.91;100.00
65190;BME280;51777;53.570;9.984;2023-01-31T15:02:59;100741.94;;;6.95;100.00